DAAP

Illizi Takhamalt Airport

Illizi, Algeria
TAF DAAP 162300Z 1700/1709 08010KT 3000 HZ NSC TEMPO 1700/1702 1500 BECMG 1702/1706 6000 NSW
Issued Valid From Valid To
Jul-16 @ 23:00 UTC
(an hour ago)
Jul-17 @ 00:00 UTC
(26 minutes ago)
Jul-17 @ 09:00 UTC
(in 9 hours)
Jul-17 @ 00:00 to Jul-17 @ 02:00
TAF DAAP 162300Z 1700/1709 08010KT 3000 HZ NSC
Wind Visibility Clouds Conditions
80° at 10 knots 2,993 meters
  • No significant clouds
  • Haze
Temporary Jul-17 @ 00:00 to Jul-17 @ 02:00
TEMPO 1700/1702 1500
Visibility
1,497 meters
Becoming Jul-17 @ 02:00 to Jul-17 @ 09:00
BECMG 1702/1706 6000 NSW
Wind Visibility Clouds Conditions
80° at 10 knots 6,003 meters
  • No significant clouds
TAF DAAP 162300Z 1700/1709 08010KT 3000 HZ NSC TEMPO 1700/1702 1500 BECMG 1702/1706 6000 NSW
Issued Jul-16 @ 23:00 UTC
(an hour ago)
Valid From Jul-17 @ 00:00 UTC
(26 minutes ago)
Valid To Jul-17 @ 09:00 UTC
(in 9 hours)
Jul-17 @ 00:00 - Jul-17 @ 02:00
Wind Visibility
80° at 10 knots 2,993 meters
Clouds
  • No significant clouds
Conditions
  • Haze
Temporary Jul-17 @ 00:00 - Jul-17 @ 02:00
Becoming Jul-17 @ 02:00 - Jul-17 @ 09:00
Wind Visibility
80° at 10 knots 6,003 meters
Clouds
  • No significant clouds
Conditions